Time;durP1;ratioP1;P1;durP2;ratioP2;P2;SDS_P1;SDS_P2;PMS_P1;PMS_P2;Temp;Humidity;BMP_temperature;BMP_pressure;BME280_temperature;BME280_humidity;BME280_pressure;Samples;Min_cycle;Max_cycle;Signal;HPM_P1;HPM_P2
2021/05/19 00:00:24;;;;;;;23.63;16.00;;;;;;;8.19;82.00;98977.05;1745085;80;20974;-64
2021/05/19 00:02:53;;;;;;;24.23;16.00;;;;;;;8.18;82.03;98971.47;1742982;81;20969;-64
2021/05/19 00:05:20;;;;;;;21.63;15.80;;;;;;;8.18;82.05;98979.27;1745036;80;21597;-63
2021/05/19 00:07:47;;;;;;;21.95;15.68;;;;;;;8.17;82.02;98978.88;1740669;80;20966;-64
2021/05/19 00:10:13;;;;;;;23.67;16.15;;;;;;;8.15;82.08;98970.33;1749215;80;21027;-64
2021/05/19 00:12:41;;;;;;;19.17;14.43;;;;;;;8.14;82.07;98972.52;1740715;81;20950;-64
2021/05/19 00:15:09;;;;;;;22.85;15.28;;;;;;;8.12;82.12;98975.65;1748644;80;20947;-64
2021/05/19 00:17:46;;;;;;;22.45;15.13;;;;;;;8.11;82.16;98976.58;1737896;81;21640;-63
2021/05/19 00:20:16;;;;;;;24.35;15.88;;;;;;;8.10;82.17;98969.70;1744645;81;21427;-64
2021/05/19 00:22:43;;;;;;;17.30;14.15;;;;;;;8.10;82.21;98974.91;1742735;80;20913;-64
2021/05/19 00:25:11;;;;;;;20.10;14.43;;;;;;;8.08;82.18;98980.63;1741688;81;20958;-64
2021/05/19 00:27:38;;;;;;;20.90;14.45;;;;;;;8.07;82.25;98978.96;1745590;81;20922;-63
2021/05/19 00:30:07;;;;;;;20.05;14.73;;;;;;;8.07;82.26;98982.86;1744259;81;21043;-63
2021/05/19 00:32:34;;;;;;;19.85;14.38;;;;;;;8.05;82.27;98987.28;1742909;81;20994;-64
2021/05/19 00:35:00;;;;;;;20.87;15.23;;;;;;;8.03;82.25;98987.80;1743586;80;20919;-63
2021/05/19 00:37:27;;;;;;;18.32;14.10;;;;;;;8.03;82.39;98990.41;1743502;81;21446;-64
2021/05/19 00:39:54;;;;;;;18.25;13.28;;;;;;;8.05;82.43;98989.88;1729555;82;20958;-64
2021/05/19 00:42:21;;;;;;;20.00;14.57;;;;;;;8.04;82.30;98988.21;1735906;81;21461;-64
2021/05/19 00:44:48;;;;;;;14.98;11.68;;;;;;;8.00;82.30;98981.46;1730332;80;21027;-63
2021/05/19 00:47:31;;;;;;;14.25;11.53;;;;;;;7.96;82.40;98979.94;1730517;81;20886;-64
2021/05/19 00:50:00;;;;;;;16.87;12.73;;;;;;;7.91;82.40;98974.11;1730084;80;20986;-64
2021/05/19 00:52:28;;;;;;;19.65;14.50;;;;;;;7.84;82.42;98969.22;1728790;82;20953;-63
2021/05/19 00:54:55;;;;;;;19.45;13.15;;;;;;;7.83;82.50;98971.41;1733250;82;21563;-64
2021/05/19 00:57:22;;;;;;;18.95;13.38;;;;;;;7.83;82.46;98964.91;1669061;85;21105;-64
2021/05/19 00:59:50;;;;;;;17.12;12.88;;;;;;;7.81;82.52;98973.27;1731918;80;20920;-63
2021/05/19 01:02:20;;;;;;;17.02;12.53;;;;;;;7.81;82.52;98977.16;1729431;80;21052;-63
2021/05/19 01:04:47;;;;;;;18.35;13.95;;;;;;;7.82;82.56;98984.03;1668525;84;20914;-63
2021/05/19 01:07:28;;;;;;;21.23;11.90;;;;;;;7.82;82.57;98982.73;1736069;82;21147;-64
2021/05/19 01:09:54;;;;;;;19.05;11.70;;;;;;;7.81;82.55;98977.16;1734356;80;21900;-63
2021/05/19 01:12:23;;;;;;;19.47;11.70;;;;;;;7.81;82.56;98977.16;1671520;84;21013;-63
2021/05/19 01:14:51;;;;;;;14.47;11.35;;;;;;;7.80;82.56;98978.06;1731513;81;20987;-63
2021/05/19 01:17:19;;;;;;;15.72;11.10;;;;;;;7.76;82.54;98981.73;1736210;82;20920;-63
2021/05/19 01:19:50;;;;;;;16.67;11.90;;;;;;;7.74;82.54;98978.36;1731316;81;20985;-64
2021/05/19 01:22:30;;;;;;;14.20;10.82;;;;;;;7.72;82.55;98981.48;1729657;82;20981;-63
2021/05/19 01:25:01;;;;;;;16.23;11.75;;;;;;;7.72;82.59;98983.23;1731771;81;20935;-63
2021/05/19 01:27:29;;;;;;;19.05;12.93;;;;;;;7.71;82.58;98988.90;1738013;82;20973;-64
2021/05/19 01:30:00;;;;;;;16.05;11.88;;;;;;;7.71;82.66;98983.70;1735171;82;20894;-64
2021/05/19 01:32:27;;;;;;;16.07;11.05;;;;;;;7.72;82.71;98982.78;1731928;82;21086;-64
2021/05/19 01:34:54;;;;;;;15.25;11.75;;;;;;;7.71;82.56;98980.27;1709255;81;20944;-64
2021/05/19 01:37:21;;;;;;;12.47;10.32;;;;;;;7.67;82.65;98976.95;1737132;82;21421;-63
2021/05/19 01:39:51;;;;;;;14.68;11.70;;;;;;;7.67;82.61;98981.31;1741763;81;20984;-64
2021/05/19 01:42:17;;;;;;;14.38;10.80;;;;;;;7.63;82.66;98973.66;1742252;81;21455;-64
2021/05/19 01:44:44;;;;;;;14.85;11.38;;;;;;;7.59;82.57;98969.54;1740453;81;21680;-64
2021/05/19 01:47:11;;;;;;;13.72;11.10;;;;;;;7.56;82.62;98972.72;1715605;81;20916;-63
2021/05/19 01:49:42;;;;;;;15.13;11.30;;;;;;;7.53;82.64;98968.97;1749194;81;27988;-64
2021/05/19 01:52:12;;;;;;;13.38;10.23;;;;;;;7.49;82.64;98967.44;1746752;81;20948;-63
2021/05/19 01:54:42;;;;;;;16.17;10.53;;;;;;;7.44;82.66;98975.44;1744288;81;20928;-63
2021/05/19 01:57:11;;;;;;;14.55;10.85;;;;;;;7.38;82.69;98976.56;1744935;81;21024;-63
2021/05/19 01:59:37;;;;;;;14.85;10.35;;;;;;;7.33;82.72;98977.22;1737460;80;20896;-63
2021/05/19 02:02:04;;;;;;;15.10;10.17;;;;;;;7.32;82.75;98977.31;1737792;80;20936;-63
2021/05/19 02:04:32;;;;;;;17.40;10.35;;;;;;;7.29;82.79;98973.09;1746698;81;20964;-63
2021/05/19 02:07:00;;;;;;;15.30;10.53;;;;;;;7.29;82.82;98976.99;1747125;81;21656;-64
2021/05/19 02:09:28;;;;;;;15.98;10.82;;;;;;;7.27;82.85;98972.31;1742156;81;21722;-63
2021/05/19 02:11:55;;;;;;;15.78;10.58;;;;;;;7.29;82.91;98975.69;1742271;81;20916;-64
2021/05/19 02:14:23;;;;;;;14.05;10.78;;;;;;;7.28;82.91;98966.66;1679751;84;21488;-63
2021/05/19 02:16:50;;;;;;;13.98;10.05;;;;;;;7.28;82.91;98964.06;1740560;81;21474;-63
2021/05/19 02:19:17;;;;;;;18.48;10.95;;;;;;;7.25;82.85;98967.64;1742869;81;21490;-63
2021/05/19 02:21:46;;;;;;;11.90;10.33;;;;;;;7.23;82.97;98969.48;1723933;81;21069;-64
2021/05/19 02:24:15;;;;;;;15.15;10.82;;;;;;;7.23;82.96;98975.98;1737986;80;21613;-63
2021/05/19 02:26:43;;;;;;;14.13;10.65;;;;;;;7.22;83.00;98975.57;1737115;81;20913;-63
2021/05/19 02:29:10;;;;;;;;;;;;;;;7.24;83.00;98975.05;1747516;81;20980;-63
2021/05/19 02:31:39;;;;;;;15.43;11.18;;;;;;;7.25;83.08;98975.43;1739255;81;20165;-64
2021/05/19 02:34:07;;;;;;;13.15;10.82;;;;;;;7.27;83.07;98972.31;1741317;81;21493;-63
2021/05/19 02:36:33;;;;;;;;;;;;;;;7.29;83.10;98972.26;1743512;80;20948;-64
2021/05/19 02:39:00;;;;;;;17.82;10.68;;;;;;;7.31;83.13;98969.98;1745142;81;20184;-64
2021/05/19 02:41:27;;;;;;;14.07;10.53;;;;;;;7.31;83.12;98967.39;1741938;81;26504;-63
2021/05/19 02:43:54;;;;;;;12.77;10.20;;;;;;;7.32;82.83;98961.27;1685066;84;20985;-63
2021/05/19 02:46:21;;;;;;;14.05;10.78;;;;;;;7.32;82.83;98961.27;1683537;84;21399;-64
2021/05/19 02:48:48;;;;;;;14.35;10.95;;;;;;;7.35;83.13;98966.31;1686686;82;20911;-63
2021/05/19 02:51:17;;;;;;;14.28;10.53;;;;;;;7.39;83.16;98969.61;1686937;84;20946;-64
2021/05/19 02:53:44;;;;;;;17.05;10.43;;;;;;;7.40;83.16;98968.25;1685180;83;20921;-64
2021/05/19 02:56:11;;;;;;;12.98;9.73;;;;;;;7.44;83.11;98974.59;1685844;84;21616;-64
2021/05/19 02:58:38;;;;;;;14.18;10.65;;;;;;;7.48;83.17;98968.33;1685636;84;20961;-64
2021/05/19 03:01:07;;;;;;;14.63;10.82;;;;;;;7.52;83.20;98964.70;1686669;82;20953;-63
2021/05/19 03:03:33;;;;;;;15.53;10.80;;;;;;;7.57;83.20;98960.13;1685764;84;20983;-64
2021/05/19 03:06:00;;;;;;;14.23;10.93;;;;;;;7.57;83.08;98962.73;1684916;84;20944;-63
2021/05/19 03:08:27;;;;;;;14.35;10.25;;;;;;;7.58;83.08;98963.94;1683168;84;21343;-63
2021/05/19 03:10:54;;;;;;;13.63;10.47;;;;;;;7.53;83.19;98959.41;1694323;84;21023;-64
2021/05/19 03:13:21;;;;;;;14.20;9.85;;;;;;;7.53;83.19;98959.41;1688832;84;21345;-64
2021/05/19 03:15:48;;;;;;;11.48;9.53;;;;;;;7.53;83.07;98957.27;1685469;83;24281;-63
2021/05/19 03:18:15;;;;;;;14.23;10.30;;;;;;;7.51;83.03;98964.32;1683532;84;21002;-63
2021/05/19 03:20:42;;;;;;;15.67;11.13;;;;;;;7.53;83.13;98963.77;1684380;84;20988;-63
2021/05/19 03:23:09;;;;;;;15.25;10.35;;;;;;;7.54;83.16;98961.58;1686619;84;21036;-64
2021/05/19 03:25:36;;;;;;;14.13;10.90;;;;;;;7.55;83.18;98964.55;1686908;82;20946;-63
2021/05/19 03:28:02;;;;;;;15.10;11.53;;;;;;;7.59;83.30;98960.91;1687997;84;20925;-64
2021/05/19 03:30:30;;;;;;;14.73;11.30;;;;;;;7.63;83.32;98958.53;1685629;84;21013;-64
2021/05/19 03:32:56;;;;;;;17.75;11.95;;;;;;;7.66;83.30;98970.55;1683832;83;20945;-64
2021/05/19 03:35:24;;;;;;;16.15;12.35;;;;;;;7.71;83.40;98962.91;1686157;84;21005;-64
2021/05/19 03:37:52;;;;;;;16.37;12.70;;;;;;;7.79;83.44;98968.59;1686008;84;21019;-64
2021/05/19 03:40:22;;;;;;;15.95;10.70;;;;;;;7.88;83.41;98969.06;1685886;84;20997;-64
2021/05/19 03:42:49;;;;;;;20.50;12.82;;;;;;;7.96;83.41;98974.73;1683785;84;21371;-64
2021/05/19 03:45:20;;;;;;;17.13;12.87;;;;;;;8.00;83.38;98979.70;1680455;84;20982;-64
2021/05/19 03:47:50;;;;;;;16.65;11.60;;;;;;;8.07;83.40;98977.66;1684354;82;21793;-64
2021/05/19 03:50:17;;;;;;;18.15;12.88;;;;;;;8.13;83.35;98976.05;1664510;84;21867;-63
2021/05/19 03:52:44;;;;;;;19.95;13.95;;;;;;;8.15;83.27;98972.06;1676638;83;21016;-64
2021/05/19 03:55:15;;;;;;;16.42;13.03;;;;;;;8.22;83.42;98976.05;1683526;83;20953;-64
2021/05/19 03:57:42;;;;;;;16.52;13.05;;;;;;;8.27;83.33;98976.21;1687145;83;20973;-64
2021/05/19 04:00:14;;;;;;;15.32;12.30;;;;;;;8.34;83.37;98985.00;1685844;82;21740;-64
2021/05/19 04:02:48;;;;;;;17.92;13.50;;;;;;;8.40;83.51;98989.92;1684286;84;20941;-64
2021/05/19 04:05:12;;;;;;;16.97;13.35;;;;;;;8.46;83.38;98985.74;1682301;84;20933;-63
2021/05/19 04:07:39;;;;;;;17.70;13.62;;;;;;;8.55;83.31;98994.37;1684790;84;20973;-64
2021/05/19 04:10:07;;;;;;;18.92;11.33;;;;;;;8.56;83.24;98996.05;1683841;83;21052;-64
2021/05/19 04:12:37;;;;;;;15.60;12.18;;;;;;;8.60;83.23;99000.19;1686240;82;21498;-64
2021/05/19 04:15:05;;;;;;;16.90;13.10;;;;;;;8.61;83.29;98994.06;1687072;84;20921;-63
2021/05/19 04:17:32;;;;;;;17.67;11.53;;;;;;;8.71;83.54;98994.41;1686308;83;21452;-64
2021/05/19 04:19:59;;;;;;;13.50;11.33;;;;;;;8.84;83.43;99000.69;1683340;83;20969;-64
2021/05/19 04:22:26;;;;;;;14.98;11.80;;;;;;;8.95;83.43;98997.52;1689788;83;20981;-64
2021/05/19 04:24:54;;;;;;;16.48;11.73;;;;;;;9.19;83.33;99001.45;1684933;84;21251;-64
2021/05/19 04:27:22;;;;;;;19.40;10.72;;;;;;;9.19;83.33;99001.45;1682708;83;20953;-64
2021/05/19 04:29:50;;;;;;;21.33;12.65;;;;;;;9.39;83.51;99009.97;1684663;84;20918;-64
2021/05/19 04:32:17;;;;;;;11.78;8.00;;;;;;;9.59;83.54;99008.89;1679594;84;20934;-64
2021/05/19 04:34:44;;;;;;;14.47;11.60;;;;;;;9.83;83.10;99004.08;1686919;84;20962;-64
2021/05/19 04:37:11;;;;;;;14.83;9.63;;;;;;;10.04;83.30;99002.87;1685192;84;20992;-64
2021/05/19 04:39:38;;;;;;;15.78;9.88;;;;;;;10.41;82.86;98999.97;1689182;83;21514;-64
2021/05/19 04:42:05;;;;;;;11.40;8.58;;;;;;;10.73;82.55;99009.84;1707489;82;20973;-64
2021/05/19 04:44:33;;;;;;;12.47;8.08;;;;;;;10.84;82.28;99003.52;1709642;83;20937;-64
2021/05/19 04:47:00;;;;;;;11.30;7.55;;;;;;;11.05;81.46;99008.38;1709054;83;20960;-64
2021/05/19 04:49:26;;;;;;;7.60;6.55;;;;;;;11.20;82.06;99004.81;1708639;83;21204;-64
2021/05/19 04:51:57;;;;;;;8.15;6.40;;;;;;;11.38;81.83;99003.69;1707848;83;21559;-64
2021/05/19 04:54:26;;;;;;;8.95;7.08;;;;;;;11.46;81.47;99005.00;1707327;83;20936;-64
2021/05/19 04:56:57;;;;;;;8.35;7.25;;;;;;;11.31;80.75;99011.52;1706605;83;20938;-64
2021/05/19 04:59:23;;;;;;;9.93;7.08;;;;;;;11.25;81.62;99010.60;1709216;83;20984;-64
2021/05/19 05:01:50;;;;;;;8.40;6.87;;;;;;;11.38;81.23;98993.23;1709293;83;21471;-63
2021/05/19 05:04:17;;;;;;;9.07;6.33;;;;;;;11.66;81.77;99004.59;1714487;83;21630;-64
2021/05/19 05:06:44;;;;;;;8.58;6.80;;;;;;;11.66;81.77;99004.59;1713392;83;21360;-64
2021/05/19 05:09:14;;;;;;;8.93;6.65;;;;;;;11.78;81.11;99016.04;1708488;83;21718;-64
2021/05/19 05:11:41;;;;;;;8.88;6.00;;;;;;;11.91;81.17;99013.53;1709009;83;20941;-64
2021/05/19 05:14:07;;;;;;;9.20;6.50;;;;;;;12.00;80.59;99005.08;1710277;83;20976;-64
2021/05/19 05:16:34;;;;;;;8.75;6.70;;;;;;;11.94;80.39;99005.00;1710357;83;20969;-64
2021/05/19 05:19:03;;;;;;;10.48;6.50;;;;;;;12.03;80.69;99004.88;1709989;83;21004;-64
2021/05/19 05:21:29;;;;;;;8.53;6.47;;;;;;;12.15;80.35;99000.14;1708733;83;21039;-64
2021/05/19 05:23:57;;;;;;;7.03;5.22;;;;;;;12.47;80.97;99005.06;1688125;83;21042;-64
2021/05/19 05:26:24;;;;;;;;;;;;;;;12.83;79.81;99005.68;1690450;82;21774;-64
2021/05/19 05:28:50;;;;;;;6.60;5.42;;;;;;;13.26;80.19;99002.75;1692175;83;20203;-65
2021/05/19 05:31:17;;;;;;;6.75;5.75;;;;;;;13.60;79.14;99013.01;1692733;84;20940;-64
2021/05/19 05:33:44;;;;;;;8.13;6.28;;;;;;;13.75;78.76;99008.92;1685717;84;20952;-65
2021/05/19 05:36:11;;;;;;;11.95;5.90;;;;;;;13.76;78.65;99014.55;1688537;84;26341;-65
2021/05/19 05:38:38;;;;;;;9.50;5.97;;;;;;;14.05;79.28;99009.81;1689073;82;21670;-65
2021/05/19 05:41:05;;;;;;;7.22;6.50;;;;;;;14.58;78.80;99016.03;1688792;83;20981;-64
2021/05/19 05:43:31;;;;;;;9.00;6.35;;;;;;;14.91;78.37;99020.05;1684949;84;21005;-65
2021/05/19 05:45:58;;;;;;;8.58;6.10;;;;;;;15.34;78.48;99017.20;1685312;84;21079;-64
2021/05/19 05:48:24;;;;;;;10.30;5.37;;;;;;;15.85;78.79;99017.55;1692845;84;20961;-65
2021/05/19 05:50:51;;;;;;;6.40;5.50;;;;;;;16.50;77.94;99014.92;1685681;82;20973;-65
2021/05/19 05:53:17;;;;;;;7.83;5.30;;;;;;;16.80;76.76;99019.94;1685649;84;21486;-63
2021/05/19 05:55:44;;;;;;;7.37;4.55;;;;;;;17.51;77.28;99014.25;1687982;84;20950;-66
2021/05/19 05:58:12;;;;;;;7.72;4.92;;;;;;;18.31;76.12;99023.03;1684347;84;20958;-65
2021/05/19 06:00:38;;;;;;;5.58;4.20;;;;;;;18.97;76.26;99020.50;1686217;84;20961;-62
2021/05/19 06:03:07;;;;;;;6.05;3.25;;;;;;;19.74;75.98;99018.53;1687305;83;22177;-63
2021/05/19 06:05:35;;;;;;;5.47;3.52;;;;;;;20.16;68.54;99017.98;1688215;84;20965;-63
2021/05/19 06:08:04;;;;;;;4.42;2.90;;;;;;;19.73;71.77;99019.53;1682359;84;21080;-63
2021/05/19 06:10:31;;;;;;;3.10;2.67;;;;;;;19.81;67.92;99022.27;1683817;84;21049;-63
2021/05/19 06:12:57;;;;;;;4.95;2.62;;;;;;;19.17;68.85;99022.59;1687159;83;21539;-62
2021/05/19 06:15:24;;;;;;;;;;;;;;;19.11;69.06;99024.99;1685293;83;21133;-62
2021/05/19 06:17:51;;;;;;;6.47;2.72;;;;;;;18.89;70.33;99023.52;1684744;84;20159;-62
2021/05/19 06:20:17;;;;;;;;;;;;;;;19.00;70.00;99019.38;1688780;84;20902;-63
2021/05/19 06:22:44;;;;;;;4.53;2.62;;;;;;;18.92;67.40;99010.83;1686427;84;20616;-63
2021/05/19 06:25:12;;;;;;;;;;;;;;;18.56;61.29;99011.89;1687145;82;20960;-62
2021/05/19 06:27:39;;;;;;;3.20;2.45;;;;;;;18.16;66.29;99016.50;1684268;83;21420;-62
2021/05/19 06:30:07;;;;;;;4.15;3.00;;;;;;;18.05;62.84;99028.86;1681999;84;20949;-62
2021/05/19 06:32:33;;;;;;;4.67;2.62;;;;;;;17.49;65.51;99021.46;1679391;84;21053;-62
2021/05/19 06:35:00;;;;;;;3.37;3.08;;;;;;;17.10;61.08;99017.82;1666058;84;21554;-65
2021/05/19 06:37:27;;;;;;;5.15;2.92;;;;;;;16.80;65.31;99013.34;1688062;83;20941;-64
2021/05/19 06:39:53;;;;;;;5.20;3.27;;;;;;;17.23;59.85;99021.92;1695433;82;21008;-64
2021/05/19 06:42:20;;;;;;;4.12;2.80;;;;;;;17.23;62.73;99019.28;1720740;82;21560;-64
2021/05/19 06:44:47;;;;;;;3.77;2.90;;;;;;;17.02;63.64;99022.91;1715996;82;20944;-64
2021/05/19 06:47:15;;;;;;;3.90;3.17;;;;;;;16.99;64.46;99016.92;1696129;82;20984;-64
2021/05/19 06:49:42;;;;;;;;;;;;;;;17.12;65.28;99018.05;1703412;82;20959;-64
2021/05/19 06:52:09;;;;;;;5.50;3.92;;;;;;;16.64;62.15;99019.88;1714255;82;21232;-63
2021/05/19 06:54:36;;;;;;;5.12;3.12;;;;;;;16.49;62.27;99026.41;1722283;82;28433;-64
2021/05/19 06:57:05;;;;;;;4.15;2.60;;;;;;;16.73;63.18;99028.81;1716260;82;20902;-64
2021/05/19 06:59:31;;;;;;;6.40;2.95;;;;;;;16.33;58.00;99029.49;1717987;82;21519;-64
2021/05/19 07:01:59;;;;;;;4.87;2.95;;;;;;;16.18;60.34;99030.73;1714406;82;20977;-64
2021/05/19 07:04:25;;;;;;;4.47;3.40;;;;;;;16.34;60.46;99033.79;1716035;82;23269;-64
2021/05/19 07:06:52;;;;;;;4.83;3.20;;;;;;;16.42;62.59;99025.27;1713417;82;20971;-65
2021/05/19 07:09:20;;;;;;;5.53;2.67;;;;;;;16.36;62.19;99032.36;1717864;82;20932;-64
2021/05/19 07:11:47;;;;;;;4.37;3.47;;;;;;;16.27;60.64;99022.93;1711940;82;21032;-64
2021/05/19 07:14:16;;;;;;;5.70;3.30;;;;;;;16.21;61.57;99033.94;1718613;82;21598;-64
2021/05/19 07:16:53;;;;;;;8.28;3.20;;;;;;;16.25;61.82;99032.75;1716430;82;21025;-64
2021/05/19 07:19:21;;;;;;;4.47;2.83;;;;;;;16.03;58.49;99034.14;1716383;82;20978;-64
2021/05/19 07:21:49;;;;;;;4.08;3.02;;;;;;;15.67;60.64;99029.02;1716476;82;20937;-63
2021/05/19 07:24:15;;;;;;;5.10;2.95;;;;;;;15.54;57.93;99044.58;1691953;82;20984;-64
2021/05/19 07:26:46;;;;;;;4.78;2.40;;;;;;;15.41;61.58;99029.77;1712259;82;21012;-65
2021/05/19 07:29:14;;;;;;;3.37;2.17;;;;;;;15.57;61.80;99025.91;1713927;82;21431;-65
2021/05/19 07:31:42;;;;;;;3.90;2.70;;;;;;;15.40;58.06;99028.10;1717977;82;20939;-65
2021/05/19 07:34:09;;;;;;;3.33;2.33;;;;;;;15.16;59.86;99022.11;1700581;82;21459;-65
2021/05/19 07:36:36;;;;;;;4.67;2.70;;;;;;;15.15;60.86;99023.91;1714753;82;20941;-65
2021/05/19 07:39:08;;;;;;;3.95;2.52;;;;;;;15.18;60.61;99031.55;1696798;82;20981;-65
2021/05/19 07:41:35;;;;;;;5.20;2.67;;;;;;;15.10;59.12;99030.00;1713004;82;21137;-65
2021/05/19 07:44:04;;;;;;;6.37;2.90;;;;;;;15.20;60.57;99031.42;1718466;82;20897;-64
2021/05/19 07:46:31;;;;;;;4.53;3.08;;;;;;;15.15;59.90;99028.30;1721279;82;20930;-64
2021/05/19 07:49:01;;;;;;;5.47;2.55;;;;;;;15.34;60.68;99043.50;1720646;82;20976;-64
2021/05/19 07:51:29;;;;;;;3.72;2.67;;;;;;;15.37;60.47;99040.15;1719137;82;20951;-64
2021/05/19 07:53:56;;;;;;;6.92;2.70;;;;;;;15.38;59.35;99045.79;1716281;82;21541;-64
2021/05/19 07:56:33;;;;;;;3.22;2.60;;;;;;;15.18;58.84;99033.36;1714529;82;21460;-65
2021/05/19 07:59:00;;;;;;;3.60;2.50;;;;;;;14.93;58.45;99043.59;1713703;82;20936;-64
2021/05/19 08:01:55;;;;;;;3.77;2.30;;;;;;;14.91;57.09;99026.61;1713657;82;20938;-64
2021/05/19 08:04:10;;;;;;;3.27;1.87;;;;;;;14.75;57.97;99047.13;1714603;82;21012;-64
2021/05/19 08:06:37;;;;;;;3.98;2.50;;;;;;;15.07;58.66;99046.46;1717371;82;20968;-64
2021/05/19 08:09:04;;;;;;;;;;;;;;;15.24;59.53;99038.14;1718688;82;21516;-64
2021/05/19 08:11:33;;;;;;;5.95;2.60;;;;;;;15.12;58.77;99042.52;1714399;81;20153;-64
2021/05/19 08:14:00;;;;;;;2.98;2.47;;;;;;;15.14;59.70;99039.79;1716593;82;20933;-65
2021/05/19 08:16:27;;;;;;;4.40;2.87;;;;;;;15.27;56.41;99056.30;1715937;82;20962;-64
2021/05/19 08:18:54;;;;;;;6.47;2.87;;;;;;;14.97;57.41;99044.55;1714275;82;21015;-64
2021/05/19 08:21:21;;;;;;;3.50;2.52;;;;;;;15.06;54.98;99048.73;1689819;82;21030;-64
2021/05/19 08:23:49;;;;;;;3.58;2.52;;;;;;;14.95;58.24;99054.33;1714175;82;21007;-64
2021/05/19 08:26:16;;;;;;;2.10;1.90;;;;;;;15.09;59.13;99048.02;1715035;82;23262;-63
2021/05/19 08:28:43;;;;;;;2.40;2.15;;;;;;;15.36;58.49;99047.69;1717319;82;20939;-64
2021/05/19 08:31:10;;;;;;;4.62;2.47;;;;;;;15.16;58.79;99053.66;1719746;82;21952;-64
2021/05/19 08:33:37;;;;;;;2.92;2.10;;;;;;;15.23;59.26;99054.85;1715577;82;20897;-64
2021/05/19 08:36:16;;;;;;;4.33;2.47;;;;;;;15.57;59.37;99054.86;1689884;82;20960;-65
2021/05/19 08:38:56;;;;;;;3.92;2.77;;;;;;;15.57;59.37;99054.86;1716780;82;21004;-64
2021/05/19 08:41:35;;;;;;;3.05;2.20;;;;;;;15.78;58.19;99058.47;1716999;82;20953;-65
2021/05/19 08:44:06;;;;;;;7.65;2.92;;;;;;;15.19;54.86;99066.09;1710874;82;21627;-64
2021/05/19 08:46:38;;;;;;;4.15;2.27;;;;;;;14.84;57.76;99062.19;1711243;82;21316;-64
2021/05/19 08:49:06;;;;;;;5.67;2.42;;;;;;;14.92;57.16;99064.24;1710633;82;20972;-64
2021/05/19 08:51:34;;;;;;;6.37;3.05;;;;;;;14.78;58.04;99063.97;1712987;82;20966;-65
2021/05/19 08:54:02;;;;;;;2.75;2.50;;;;;;;14.80;58.08;99066.02;1716650;82;21000;-64
2021/05/19 08:56:29;;;;;;;4.40;2.70;;;;;;;14.75;58.18;99064.20;1718565;82;21136;-64
2021/05/19 08:58:56;;;;;;;3.25;2.77;;;;;;;14.80;58.52;99060.76;1718981;82;21520;-65
2021/05/19 09:01:26;;;;;;;3.60;2.52;;;;;;;15.10;57.53;99071.23;1696334;82;20976;-63
2021/05/19 09:04:04;;;;;;;6.67;2.92;;;;;;;15.43;57.58;99066.00;1700527;82;21103;-63
2021/05/19 09:06:30;;;;;;;5.10;3.15;;;;;;;15.43;56.49;99073.89;1715846;82;20976;-63
2021/05/19 09:08:57;;;;;;;3.83;2.75;;;;;;;15.24;58.01;99065.75;1715941;82;21915;-63
2021/05/19 09:11:24;;;;;;;5.53;3.27;;;;;;;15.68;58.79;99068.04;1714247;82;21032;-61
2021/05/19 09:13:51;;;;;;;7.28;3.62;;;;;;;15.54;56.16;99078.30;1713882;82;20941;-61
2021/05/19 09:16:29;;;;;;;3.62;2.62;;;;;;;15.28;56.93;99076.38;1715301;82;21051;-63
2021/05/19 09:18:58;;;;;;;3.12;2.65;;;;;;;15.29;57.30;99078.08;1716924;82;20980;-63
2021/05/19 09:21:41;;;;;;;3.35;2.52;;;;;;;15.65;55.80;99070.87;1716279;82;21068;-62
2021/05/19 09:24:12;;;;;;;4.40;2.20;;;;;;;15.72;56.02;99077.38;1717861;82;20951;-62
2021/05/19 09:26:59;;;;;;;4.10;2.77;;;;;;;15.71;57.06;99080.98;1717168;82;20901;-62
2021/05/19 09:29:33;;;;;;;5.87;2.87;;;;;;;16.04;57.12;99081.88;1713940;82;20965;-62
2021/05/19 09:32:04;;;;;;;3.25;2.90;;;;;;;15.93;55.64;99076.63;1712336;82;20909;-62
2021/05/19 09:34:37;;;;;;;2.80;2.58;;;;;;;15.89;55.82;99087.41;1711808;82;21609;-62
2021/05/19 09:37:26;;;;;;;3.12;2.45;;;;;;;16.09;56.80;99082.35;1710172;82;21037;-62
2021/05/19 09:40:12;;;;;;;6.53;2.72;;;;;;;16.37;55.19;99078.81;1720828;82;20931;-62
2021/05/19 09:42:46;;;;;;;3.50;2.70;;;;;;;16.06;56.28;99086.06;1718196;82;21048;-62
2021/05/19 09:45:30;;;;;;;6.22;2.62;;;;;;;16.63;56.33;99082.77;1717112;82;20925;-62
2021/05/19 09:47:59;;;;;;;2.95;2.50;;;;;;;16.55;55.27;99087.37;1716145;82;21011;-62
2021/05/19 09:50:45;;;;;;;4.15;2.55;;;;;;;16.26;55.93;99084.45;1714038;82;20934;-63
2021/05/19 09:53:15;;;;;;;3.95;2.22;;;;;;;16.24;56.51;99087.69;1698894;82;20954;-63
2021/05/19 09:55:52;;;;;;;7.58;2.80;;;;;;;16.20;55.53;99084.13;1716750;82;21439;-63
2021/05/19 09:58:40;;;;;;;;;;;;;;;15.80;55.88;99088.15;1679213;83;20960;-63
2021/05/19 10:01:08;;;;;;;3.90;2.87;;;;;;;15.92;56.58;99088.13;1685638;84;21054;-62
2021/05/19 10:03:36;;;;;;;6.75;2.50;;;;;;;16.07;56.57;99102.70;1679115;83;20992;-63
2021/05/19 10:06:19;;;;;;;5.65;2.20;;;;;;;16.19;56.74;99091.20;1685182;84;21052;-63
2021/05/19 10:08:44;;;;;;;2.72;1.80;;;;;;;16.42;56.69;99087.18;1674982;84;20980;-63
2021/05/19 10:11:13;;;;;;;2.90;2.25;;;;;;;16.35;55.75;99096.05;1685883;84;20944;-62
2021/05/19 10:13:43;;;;;;;3.55;2.45;;;;;;;16.25;55.29;99095.97;1686699;84;21755;-63
2021/05/19 10:16:12;;;;;;;3.60;2.42;;;;;;;16.22;55.62;99098.85;1685299;84;21104;-62
2021/05/19 10:18:46;;;;;;;8.13;3.92;;;;;;;15.99;55.06;99097.20;1691182;84;20929;-62
2021/05/19 10:21:15;;;;;;;3.42;2.60;;;;;;;15.96;56.17;99105.34;1687887;84;20996;-63
2021/05/19 10:24:12;;;;;;;2.77;2.47;;;;;;;16.06;55.94;99099.72;1684267;84;21006;-62
2021/05/19 10:27:03;;;;;;;2.72;2.17;;;;;;;16.05;55.56;99102.00;1668779;84;21356;-62
2021/05/19 10:29:51;;;;;;;5.53;2.60;;;;;;;16.13;55.92;99099.56;1660073;84;21538;-62
2021/05/19 10:32:33;;;;;;;5.70;2.62;;;;;;;16.22;55.75;99090.95;1686482;84;21694;-62
2021/05/19 10:35:05;;;;;;;5.92;2.17;;;;;;;16.50;56.49;99084.76;1686718;84;20913;-62
2021/05/19 10:37:36;;;;;;;6.67;2.17;;;;;;;17.05;56.40;99084.14;1688937;84;20937;-62
2021/05/19 10:40:20;;;;;;;9.53;2.40;;;;;;;17.30;55.94;99087.34;1686577;84;21548;-62
2021/05/19 10:42:56;;;;;;;3.25;2.02;;;;;;;17.40;55.70;99088.23;1678353;84;21555;-63
2021/05/19 10:45:23;;;;;;;3.22;1.85;;;;;;;17.40;55.42;99093.52;1699732;83;20944;-63
2021/05/19 10:47:52;;;;;;;7.40;2.35;;;;;;;17.40;55.62;99091.71;1708336;83;20950;-62
2021/05/19 10:50:38;;;;;;;4.15;2.00;;;;;;;17.42;54.94;99088.92;1680416;83;20945;-63
2021/05/19 10:58:53;;;;;;;3.85;2.60;;;;;;;17.52;55.06;99096.41;1679534;84;20997;-62
2021/05/19 11:01:48;;;;;;;4.67;2.15;;;;;;;17.44;54.84;99100.19;1677904;83;20953;-63
2021/05/19 11:04:21;;;;;;;3.85;2.25;;;;;;;17.28;54.33;99098.50;1673231;84;20961;-62
2021/05/19 11:07:05;;;;;;;4.95;2.45;;;;;;;17.07;54.40;99098.04;1681696;83;21778;-63
2021/05/19 11:09:36;;;;;;;9.85;2.87;;;;;;;16.93;54.68;99095.73;1681428;83;20925;-62
2021/05/19 11:12:25;;;;;;;6.37;2.47;;;;;;;17.13;55.00;99097.52;1667946;83;21380;-62
2021/05/19 11:15:00;;;;;;;8.63;2.55;;;;;;;17.17;54.50;99101.59;1682386;84;21012;-62
2021/05/19 11:17:51;;;;;;;4.03;2.45;;;;;;;17.30;54.68;99100.53;1684942;82;20969;-62
2021/05/19 11:20:09;;;;;;;4.85;2.42;;;;;;;17.27;54.32;99103.44;1681377;84;20974;-62
2021/05/19 11:22:36;;;;;;;4.15;1.80;;;;;;;17.23;54.39;99108.98;1681300;82;20999;-62
2021/05/19 11:25:05;;;;;;;2.40;2.00;;;;;;;17.14;53.15;99113.72;1685447;84;20953;-64
2021/05/19 11:27:34;;;;;;;3.80;2.00;;;;;;;16.70;52.76;99111.63;1688319;84;21503;-63
2021/05/19 11:30:04;;;;;;;4.78;2.10;;;;;;;16.30;52.20;99120.14;1681001;84;20974;-64
2021/05/19 11:32:33;;;;;;;3.20;1.87;;;;;;;16.24;53.72;99119.30;1681013;84;21001;-64
2021/05/19 11:35:19;;;;;;;5.22;1.92;;;;;;;16.43;54.08;99119.14;1678966;84;21445;-64
2021/05/19 11:38:01;;;;;;;2.27;1.90;;;;;;;16.58;53.65;99117.91;1685741;84;20953;-64
2021/05/19 11:40:44;;;;;;;6.10;2.62;;;;;;;16.68;53.82;99118.81;1676954;83;21048;-64
2021/05/19 11:43:15;;;;;;;2.50;1.70;;;;;;;16.65;53.53;99120.38;1681098;82;20982;-64
2021/05/19 11:45:44;;;;;;;3.12;2.10;;;;;;;16.83;53.61;99125.13;1707058;82;21057;-64
2021/05/19 11:48:32;;;;;;;10.43;2.27;;;;;;;16.81;53.63;99128.40;1707892;81;20925;-64